Time;durP1;ratioP1;P1;durP2;ratioP2;P2;SDS_P1;SDS_P2;PMS_P1;PMS_P2;Temp;Humidity;BMP_temperature;BMP_pressure;BME280_temperature;BME280_humidity;BME280_pressure;Samples;Min_cycle;Max_cycle;Signal;HPM_P1;HPM_P2
2021/07/08 00:02:05;;;;;;;5.07;3.13;;;19.60;99.90;;;;;;5033575;28;20463;-68
2021/07/08 00:04:33;;;;;;;5.23;4.00;;;19.60;99.90;;;;;;5036696;28;20550;-68
2021/07/08 00:07:00;;;;;;;3.77;3.40;;;19.60;99.90;;;;;;5053464;28;20463;-68
2021/07/08 00:09:27;;;;;;;5.43;3.47;;;19.60;99.90;;;;;;5050591;28;20507;-68
2021/07/08 00:11:56;;;;;;;8.40;3.20;;;19.50;99.90;;;;;;5033569;28;20437;-68
2021/07/08 00:14:24;;;;;;;4.30;3.20;;;19.50;99.90;;;;;;5034070;28;20440;-68
2021/07/08 00:16:51;;;;;;;5.07;3.20;;;19.60;99.90;;;;;;5053103;28;20479;-69
2021/07/08 00:19:19;;;;;;;6.03;3.37;;;19.60;99.90;;;;;;5053141;28;20502;-69
2021/07/08 00:21:46;;;;;;;8.20;3.37;;;19.60;99.90;;;;;;5033125;28;21030;-68
2021/07/08 00:24:13;;;;;;;4.50;3.03;;;19.60;99.90;;;;;;5033024;28;20485;-68
2021/07/08 00:26:40;;;;;;;4.00;3.30;;;19.60;99.90;;;;;;5032877;28;20434;-68
2021/07/08 00:29:07;;;;;;;5.20;3.70;;;19.60;99.90;;;;;;5033225;28;20468;-68
2021/07/08 00:31:34;;;;;;;7.03;3.17;;;19.60;99.90;;;;;;5050008;28;20441;-68
2021/07/08 00:34:02;;;;;;;3.40;2.97;;;19.60;99.90;;;;;;5053079;28;20444;-68
2021/07/08 00:36:34;;;;;;;4.50;3.40;;;19.50;99.90;;;;;;5036772;28;20487;-68
2021/07/08 00:39:01;;;;;;;3.47;3.00;;;19.50;99.90;;;;;;5032730;28;20444;-68
2021/07/08 00:41:27;;;;;;;5.27;2.90;;;19.50;99.90;;;;;;5047704;28;20437;-67
2021/07/08 00:43:54;;;;;;;4.27;3.47;;;19.50;99.90;;;;;;5052534;28;20966;-68
2021/07/08 00:46:26;;;;;;;3.70;3.07;;;19.50;99.90;;;;;;5038824;28;20503;-68
2021/07/08 00:48:53;;;;;;;6.00;3.60;;;19.50;99.90;;;;;;5044160;28;20441;-68
2021/07/08 00:51:21;;;;;;;5.07;3.27;;;19.50;99.90;;;;;;5052822;28;20437;-68
2021/07/08 00:53:49;;;;;;;5.00;3.10;;;19.50;99.90;;;;;;5042203;28;20442;-68
2021/07/08 00:56:17;;;;;;;4.43;3.13;;;19.50;99.90;;;;;;5032507;28;20441;-68
2021/07/08 00:58:48;;;;;;;5.00;3.03;;;19.50;99.90;;;;;;5041335;28;20444;-68
2021/07/08 01:01:15;;;;;;;5.20;3.30;;;19.50;99.90;;;;;;5052764;28;20437;-68
2021/07/08 01:03:42;;;;;;;4.10;3.10;;;19.60;99.90;;;;;;5043815;28;20466;-68
2021/07/08 01:06:11;;;;;;;10.70;4.27;;;19.60;99.90;;;;;;5032637;28;20438;-68
2021/07/08 01:08:38;;;;;;;4.47;2.93;;;19.60;99.90;;;;;;5038471;28;20466;-68
2021/07/08 01:11:06;;;;;;;5.43;3.50;;;19.60;99.90;;;;;;5052336;28;20437;-68
2021/07/08 01:13:33;;;;;;;6.10;4.20;;;19.60;99.90;;;;;;5050274;28;20441;-68
2021/07/08 01:16:00;;;;;;;8.03;5.73;;;19.60;99.90;;;;;;5052054;28;20511;-68
2021/07/08 01:18:27;;;;;;;7.90;7.00;;;19.60;99.90;;;;;;5048207;28;20430;-68
2021/07/08 01:20:54;;;;;;;11.20;9.13;;;19.60;99.90;;;;;;5032455;28;20464;-68
2021/07/08 01:23:23;;;;;;;14.67;11.97;;;19.60;99.90;;;;;;5034352;28;20454;-68
2021/07/08 01:25:50;;;;;;;16.50;12.77;;;19.60;99.90;;;;;;5051973;28;20554;-68
2021/07/08 01:28:19;;;;;;;17.87;13.03;;;19.60;99.90;;;;;;5046582;28;20453;-68
2021/07/08 01:30:46;;;;;;;22.80;16.50;;;19.70;99.90;;;;;;5032566;28;20437;-68
2021/07/08 01:33:13;;;;;;;17.23;14.70;;;19.70;99.90;;;;;;5036072;28;20483;-68
2021/07/08 01:35:40;;;;;;;19.70;15.77;;;19.70;99.90;;;;;;5052252;28;20973;-68
2021/07/08 01:38:07;;;;;;;18.50;15.30;;;19.70;99.90;;;;;;5048738;28;20936;-68
2021/07/08 01:40:36;;;;;;;19.63;16.03;;;19.70;99.90;;;;;;5036359;28;20441;-68
2021/07/08 01:43:03;;;;;;;22.30;14.90;;;19.70;99.90;;;;;;5050147;28;20425;-68
2021/07/08 01:45:30;;;;;;;16.77;13.53;;;19.70;99.90;;;;;;5032282;28;20839;-68
2021/07/08 01:47:57;;;;;;;17.60;14.10;;;19.70;99.90;;;;;;5032002;28;20437;-68
2021/07/08 01:50:24;;;;;;;18.67;13.83;;;19.70;99.90;;;;;;5052038;28;20440;-68
2021/07/08 01:52:52;;;;;;;16.80;14.10;;;19.70;99.90;;;;;;5052035;28;20486;-68
2021/07/08 01:55:19;;;;;;;18.90;12.70;;;19.70;99.90;;;;;;5032308;28;20539;-68
2021/07/08 01:57:52;;;;;;;15.57;13.40;;;19.70;99.90;;;;;;5032107;28;20457;-68
2021/07/08 02:00:20;;;;;;;17.17;14.00;;;19.70;99.90;;;;;;5050662;28;20476;-70
2021/07/08 02:02:47;;;;;;;16.83;12.00;;;19.70;99.90;;;;;;5050075;28;20441;-68
2021/07/08 02:05:16;;;;;;;14.80;11.63;;;19.70;99.90;;;;;;5051875;28;20491;-68
2021/07/08 02:07:43;;;;;;;15.90;12.63;;;19.70;99.90;;;;;;5037914;28;20446;-68
2021/07/08 02:10:13;;;;;;;13.90;11.70;;;19.70;99.90;;;;;;5031842;28;20438;-68
2021/07/08 02:12:41;;;;;;;15.37;12.10;;;19.70;99.90;;;;;;5044244;28;20445;-68
2021/07/08 02:15:11;;;;;;;14.10;10.83;;;19.70;99.90;;;;;;5051651;28;20576;-68
2021/07/08 02:17:39;;;;;;;13.30;10.53;;;19.70;99.90;;;;;;5042834;28;20438;-68
2021/07/08 02:20:13;;;;;;;13.07;10.70;;;19.70;99.90;;;;;;5033993;28;20503;-70
2021/07/08 02:22:40;;;;;;;10.73;9.57;;;19.60;99.90;;;;;;5047420;28;20530;-68
2021/07/08 02:25:09;;;;;;;11.27;10.00;;;19.60;99.90;;;;;;5055430;28;20511;-68
2021/07/08 02:27:37;;;;;;;11.70;9.63;;;19.60;99.90;;;;;;5044079;28;20468;-68
2021/07/08 02:30:09;;;;;;;9.60;7.90;;;19.50;99.90;;;;;;5035439;28;20443;-68
2021/07/08 02:32:36;;;;;;;9.73;8.57;;;19.50;99.90;;;;;;5045145;28;20507;-68
2021/07/08 02:35:05;;;;;;;8.80;7.23;;;19.50;99.90;;;;;;5055262;28;20448;-68
2021/07/08 02:37:32;;;;;;;13.73;9.87;;;19.50;99.90;;;;;;5045581;28;20442;-68
2021/07/08 02:39:59;;;;;;;13.13;9.00;;;19.50;99.90;;;;;;5051140;28;20441;-68
2021/07/08 02:42:26;;;;;;;13.50;9.13;;;19.50;99.90;;;;;;5046839;28;20445;-68
2021/07/08 02:44:53;;;;;;;9.93;8.93;;;19.40;99.90;;;;;;5035138;28;20902;-71
2021/07/08 02:47:22;;;;;;;11.33;8.40;;;19.40;99.90;;;;;;5041119;28;20820;-69
2021/07/08 02:49:49;;;;;;;10.87;8.30;;;19.40;99.90;;;;;;5054921;28;20482;-69
2021/07/08 02:52:16;;;;;;;10.87;9.23;;;19.40;99.90;;;;;;5038193;28;20877;-68
2021/07/08 02:54:43;;;;;;;9.37;8.37;;;19.40;99.90;;;;;;5034958;28;20442;-68
2021/07/08 02:57:09;;;;;;;10.50;9.40;;;19.30;99.90;;;;;;5049367;28;20487;-68
2021/07/08 02:59:36;;;;;;;14.80;9.13;;;19.40;99.90;;;;;;5054558;28;20437;-68
2021/07/08 03:02:04;;;;;;;10.87;9.30;;;19.40;99.90;;;;;;5040832;28;20481;-68
2021/07/08 03:04:32;;;;;;;11.60;9.50;;;19.40;99.90;;;;;;5034606;28;20472;-68
2021/07/08 03:06:59;;;;;;;17.27;9.83;;;19.40;99.90;;;;;;5047295;28;20437;-68
2021/07/08 03:09:26;;;;;;;10.60;9.43;;;19.30;99.90;;;;;;5054709;28;20437;-68
2021/07/08 03:11:53;;;;;;;11.43;9.80;;;19.30;99.90;;;;;;5041621;28;20438;-69
2021/07/08 03:14:20;;;;;;;11.80;10.07;;;19.30;99.90;;;;;;5035020;28;20441;-68
2021/07/08 03:16:47;;;;;;;10.50;8.63;;;19.30;99.90;;;;;;5054130;28;20476;-68
2021/07/08 03:19:14;;;;;;;11.03;9.30;;;19.30;99.90;;;;;;5044456;28;20438;-68
2021/07/08 03:21:43;;;;;;;10.47;8.73;;;19.30;99.90;;;;;;5034437;28;20464;-68
2021/07/08 03:24:10;;;;;;;11.60;10.13;;;19.30;99.90;;;;;;5042210;28;20437;-68
2021/07/08 03:26:36;;;;;;;11.40;8.40;;;19.30;99.90;;;;;;5053166;28;20538;-68
2021/07/08 03:29:04;;;;;;;14.20;10.60;;;19.30;99.90;;;;;;5034308;28;20504;-68
2021/07/08 03:31:31;;;;;;;11.80;10.40;;;19.30;99.90;;;;;;5034384;28;20438;-68
2021/07/08 03:33:58;;;;;;;11.77;9.83;;;19.30;99.90;;;;;;5054202;28;20848;-68
2021/07/08 03:36:25;;;;;;;15.83;9.37;;;19.30;99.90;;;;;;5054174;28;20433;-68
2021/07/08 03:38:53;;;;;;;10.57;8.97;;;19.30;99.90;;;;;;5036835;28;20433;-68
2021/07/08 03:41:20;;;;;;;9.83;8.50;;;19.30;99.90;;;;;;5054085;28;20444;-68
2021/07/08 03:43:47;;;;;;;10.87;9.77;;;19.30;99.90;;;;;;5035243;28;20947;-68
2021/07/08 03:46:14;;;;;;;8.97;7.60;;;19.30;99.90;;;;;;5033836;28;20485;-68
2021/07/08 03:48:42;;;;;;;12.00;8.87;;;19.30;99.90;;;;;;5050812;28;20444;-68
2021/07/08 03:51:09;;;;;;;9.13;8.23;;;19.30;99.90;;;;;;5049163;28;20491;-69
2021/07/08 03:53:36;;;;;;;11.47;9.57;;;19.30;99.90;;;;;;5033767;28;20446;-68
2021/07/08 03:56:05;;;;;;;9.60;8.20;;;19.30;99.90;;;;;;5036058;28;20437;-68
2021/07/08 03:58:32;;;;;;;10.40;8.63;;;19.30;99.90;;;;;;5053698;28;20469;-69
2021/07/08 04:00:59;;;;;;;11.70;9.40;;;19.30;99.90;;;;;;5051339;28;20452;-68
2021/07/08 04:03:28;;;;;;;10.03;8.90;;;19.30;99.90;;;;;;5037834;28;20436;-68
2021/07/08 04:05:55;;;;;;;9.30;8.33;;;19.30;99.90;;;;;;5052549;28;20516;-68
2021/07/08 04:08:22;;;;;;;8.67;7.77;;;19.30;99.90;;;;;;5033791;28;20442;-68
2021/07/08 04:10:50;;;;;;;10.03;8.80;;;19.30;99.90;;;;;;5033848;28;20469;-68
2021/07/08 04:13:20;;;;;;;8.63;7.73;;;19.30;99.90;;;;;;5034079;28;20446;-68
2021/07/08 04:15:51;;;;;;;10.70;8.30;;;19.30;99.90;;;;;;5039280;28;20523;-68
2021/07/08 04:18:19;;;;;;;10.53;9.00;;;19.30;99.90;;;;;;5053236;28;20444;-68
2021/07/08 04:20:47;;;;;;;8.13;7.30;;;19.40;99.90;;;;;;5047825;28;20487;-68
2021/07/08 04:23:15;;;;;;;10.90;7.50;;;19.40;99.90;;;;;;5033700;28;20446;-68
2021/07/08 04:25:46;;;;;;;10.07;7.83;;;19.40;99.90;;;;;;5037483;28;20485;-67
2021/07/08 04:28:13;;;;;;;8.10;7.30;;;19.40;99.90;;;;;;5044135;28;20442;-68
2021/07/08 04:30:43;;;;;;;8.83;7.10;;;19.40;99.90;;;;;;5036485;28;20484;-68
2021/07/08 04:33:10;;;;;;;10.80;7.30;;;19.40;99.90;;;;;;5053270;28;20510;-67
2021/07/08 04:35:39;;;;;;;8.57;6.50;;;19.40;99.90;;;;;;5049654;28;20920;-68
2021/07/08 04:38:07;;;;;;;7.27;6.50;;;19.40;99.90;;;;;;5033233;28;20442;-68
2021/07/08 04:40:35;;;;;;;7.33;6.53;;;19.40;99.90;;;;;;5042480;28;20461;-68
2021/07/08 04:43:02;;;;;;;8.90;6.50;;;19.40;99.90;;;;;;5052441;28;20444;-68
2021/07/08 04:45:30;;;;;;;7.53;5.73;;;19.40;99.90;;;;;;5044322;28;20513;-68
2021/07/08 04:47:58;;;;;;;12.37;6.10;;;19.40;99.90;;;;;;5033101;28;20442;-68
2021/07/08 04:50:26;;;;;;;5.80;5.20;;;19.40;99.90;;;;;;5033876;28;20438;-68
2021/07/08 04:52:53;;;;;;;7.23;6.53;;;19.40;99.90;;;;;;5042759;28;20433;-68
2021/07/08 04:55:22;;;;;;;10.10;6.50;;;19.40;99.90;;;;;;5046429;28;20940;-68
2021/07/08 04:57:49;;;;;;;8.47;6.37;;;19.40;99.90;;;;;;5034303;28;20441;-68
2021/07/08 05:00:20;;;;;;;9.67;6.20;;;19.40;99.90;;;;;;5042126;28;20984;-68
2021/07/08 05:02:49;;;;;;;7.10;6.00;;;19.40;99.90;;;;;;5052439;28;20441;-69
2021/07/08 05:05:20;;;;;;;5.60;5.00;;;19.40;99.90;;;;;;5032920;28;20972;-67
2021/07/08 05:07:48;;;;;;;7.93;5.77;;;19.40;99.90;;;;;;5040251;28;20519;-68
2021/07/08 05:10:16;;;;;;;7.90;6.50;;;19.40;99.90;;;;;;5040922;28;20482;-68
2021/07/08 05:12:44;;;;;;;5.97;5.37;;;19.40;99.90;;;;;;5032884;28;20433;-67
2021/07/08 05:15:14;;;;;;;7.43;5.90;;;19.40;99.90;;;;;;5043214;28;20487;-68
2021/07/08 05:17:41;;;;;;;7.77;6.03;;;19.40;99.90;;;;;;5052783;28;20464;-67
2021/07/08 05:20:10;;;;;;;6.37;5.27;;;19.40;99.90;;;;;;5035090;28;20434;-67
2021/07/08 05:22:39;;;;;;;5.97;5.37;;;19.40;99.90;;;;;;5035930;28;20534;-67
2021/07/08 05:25:08;;;;;;;6.87;5.57;;;19.40;99.90;;;;;;5048174;28;21005;-67
2021/07/08 05:27:36;;;;;;;5.33;4.40;;;19.40;99.90;;;;;;5036250;28;20969;-68
2021/07/08 05:30:04;;;;;;;6.50;5.10;;;19.50;99.90;;;;;;5032532;28;20920;-68
2021/07/08 05:32:31;;;;;;;6.90;5.53;;;19.40;99.90;;;;;;5032644;28;20952;-67
2021/07/08 05:34:58;;;;;;;7.07;5.60;;;19.50;99.90;;;;;;5032375;28;20473;-69
2021/07/08 05:37:25;;;;;;;6.43;5.83;;;19.50;99.90;;;;;;5045962;28;20441;-69
2021/07/08 05:39:54;;;;;;;9.30;5.47;;;19.50;99.90;;;;;;5046367;28;20507;-67
2021/07/08 05:42:21;;;;;;;6.97;5.97;;;19.50;99.90;;;;;;5041073;28;20494;-68
2021/07/08 05:44:48;;;;;;;6.70;5.00;;;19.50;99.90;;;;;;5052388;28;20464;-68
2021/07/08 05:47:17;;;;;;;6.50;5.00;;;19.50;99.90;;;;;;5052374;28;20487;-67
2021/07/08 05:49:49;;;;;;;5.80;5.20;;;19.50;99.90;;;;;;5050998;28;20440;-68
2021/07/08 05:52:23;;;;;;;6.63;5.80;;;19.60;99.90;;;;;;5035255;28;20446;-67
2021/07/08 05:54:50;;;;;;;9.27;5.20;;;19.60;99.90;;;;;;5035044;28;20468;-67
2021/07/08 05:57:22;;;;;;;6.40;5.40;;;19.60;99.90;;;;;;5048418;28;20441;-67
2021/07/08 05:59:54;;;;;;;9.97;4.97;;;19.60;99.90;;;;;;5035896;28;20438;-67
2021/07/08 06:02:22;;;;;;;6.33;5.40;;;19.60;99.90;;;;;;5035461;28;20771;-67
2021/07/08 06:04:54;;;;;;;5.20;4.67;;;19.60;99.90;;;;;;5035654;28;20434;-67
2021/07/08 06:07:34;;;;;;;12.20;5.20;;;19.60;99.90;;;;;;5044068;28;20843;-67
2021/07/08 06:10:07;;;;;;;9.00;5.10;;;19.60;99.90;;;;;;5043773;28;21017;-67
2021/07/08 06:12:36;;;;;;;6.50;5.00;;;19.60;99.90;;;;;;5035797;28;20452;-67
2021/07/08 06:15:05;;;;;;;9.33;4.97;;;19.60;99.90;;;;;;5035975;28;21121;-67
2021/07/08 06:17:35;;;;;;;4.93;4.37;;;19.70;99.90;;;;;;5041309;28;20448;-68
2021/07/08 06:20:03;;;;;;;7.47;4.73;;;19.70;99.90;;;;;;5035403;28;20921;-67
2021/07/08 06:22:30;;;;;;;7.80;5.00;;;19.70;99.90;;;;;;5035769;28;20434;-67
2021/07/08 06:24:59;;;;;;;6.33;4.03;;;19.70;99.90;;;;;;5050459;28;20441;-67
2021/07/08 06:27:28;;;;;;;4.80;4.10;;;19.80;99.90;;;;;;5039107;28;20477;-68
2021/07/08 06:29:56;;;;;;;6.03;4.00;;;19.80;99.90;;;;;;5035856;28;20776;-68
2021/07/08 06:32:25;;;;;;;8.07;4.90;;;19.80;99.90;;;;;;5037727;28;20449;-69
2021/07/08 06:34:52;;;;;;;8.63;5.77;;;19.90;99.90;;;;;;5042376;28;20437;-68
2021/07/08 06:37:19;;;;;;;5.83;4.70;;;20.00;99.90;;;;;;5055468;28;20499;-69
2021/07/08 06:39:50;;;;;;;6.60;4.70;;;20.00;99.90;;;;;;5046325;28;20461;-68
2021/07/08 06:42:18;;;;;;;6.13;4.70;;;20.00;99.90;;;;;;5047454;28;20437;-68
2021/07/08 06:44:49;;;;;;;6.77;3.80;;;20.00;99.90;;;;;;5039143;28;20434;-70
2021/07/08 06:47:20;;;;;;;7.13;4.60;;;20.10;99.90;;;;;;5034846;28;20481;-68
2021/07/08 06:49:47;;;;;;;5.50;4.83;;;20.10;99.90;;;;;;5048060;28;20444;-68
2021/07/08 06:52:16;;;;;;;5.53;4.63;;;20.20;99.90;;;;;;5050519;28;20473;-68
2021/07/08 06:54:43;;;;;;;6.70;5.40;;;20.20;99.90;;;;;;5033330;28;20925;-68
2021/07/08 06:57:11;;;;;;;6.83;5.20;;;20.10;99.90;;;;;;5034672;28;20536;-68
2021/07/08 06:59:38;;;;;;;6.10;5.43;;;20.20;99.90;;;;;;5048539;28;20436;-68
2021/07/08 07:02:05;;;;;;;7.80;6.07;;;20.20;99.90;;;;;;5040151;28;20469;-68
2021/07/08 07:04:34;;;;;;;9.43;5.60;;;20.20;99.90;;;;;;5034205;28;20524;-68
2021/07/08 07:07:00;;;;;;;6.03;5.30;;;20.20;99.90;;;;;;5034981;28;20509;-68
2021/07/08 07:09:27;;;;;;;7.60;6.53;;;20.20;99.90;;;;;;5034375;28;20469;-68
2021/07/08 07:11:54;;;;;;;10.93;5.93;;;20.20;99.90;;;;;;5034785;28;20968;-68
2021/07/08 07:14:21;;;;;;;6.63;5.90;;;20.30;99.90;;;;;;5034752;28;20513;-68
2021/07/08 07:16:53;;;;;;;6.87;6.10;;;20.30;99.90;;;;;;5034352;28;20561;-71
2021/07/08 07:19:26;;;;;;;6.83;5.53;;;20.30;99.90;;;;;;5043361;28;20524;-68
2021/07/08 07:22:00;;;;;;;7.37;5.90;;;20.30;99.90;;;;;;5038106;28;20437;-69
2021/07/08 07:24:27;;;;;;;7.97;6.00;;;20.30;99.90;;;;;;5034390;28;20445;-68
2021/07/08 07:26:54;;;;;;;8.70;6.07;;;20.30;99.80;;;;;;5033909;28;20485;-68
2021/07/08 07:29:25;;;;;;;9.43;7.63;;;20.30;99.70;;;;;;5050814;28;20441;-67
2021/07/08 07:31:52;;;;;;;10.50;7.30;;;20.30;99.40;;;;;;5034526;28;20881;-68
2021/07/08 07:34:20;;;;;;;8.27;6.93;;;20.40;99.60;;;;;;5033670;28;20790;-68
2021/07/08 07:36:47;;;;;;;8.40;7.20;;;20.40;99.70;;;;;;5033316;28;20491;-68
2021/07/08 07:39:16;;;;;;;6.70;6.00;;;20.50;99.80;;;;;;5039188;28;20440;-69
2021/07/08 07:41:43;;;;;;;8.23;6.53;;;20.50;99.50;;;;;;5038770;28;20458;-68
2021/07/08 07:44:13;;;;;;;8.43;7.60;;;20.50;99.50;;;;;;5038394;28;20990;-68
2021/07/08 07:46:43;;;;;;;14.10;7.50;;;20.60;99.80;;;;;;5051213;28;20484;-69
2021/07/08 07:49:11;;;;;;;8.20;7.40;;;20.70;99.70;;;;;;5050807;28;20477;-67
2021/07/08 07:51:38;;;;;;;9.67;7.93;;;20.70;99.20;;;;;;5051304;28;21364;-67
2021/07/08 07:54:05;;;;;;;6.77;6.07;;;20.80;98.70;;;;;;5044628;28;20843;-68
2021/07/08 07:56:33;;;;;;;7.80;6.90;;;20.80;98.60;;;;;;5037314;28;20434;-69
2021/07/08 07:59:00;;;;;;;8.07;7.30;;;20.90;98.40;;;;;;5032854;28;20515;-69
2021/07/08 08:01:27;;;;;;;9.53;7.23;;;20.90;98.20;;;;;;5035578;28;20457;-69
2021/07/08 08:03:56;;;;;;;7.80;7.00;;;20.90;98.00;;;;;;5037400;28;20434;-69
2021/07/08 08:09:15;;;;;;;7.40;6.70;;;20.90;98.00;;;;;;5033062;28;20556;-71
2021/07/08 08:11:48;;;;;;;8.43;6.57;;;20.90;97.90;;;;;;5036166;28;20552;-69
2021/07/08 08:14:17;;;;;;;7.60;6.80;;;20.90;98.00;;;;;;5037555;28;20791;-70
2021/07/08 08:16:47;;;;;;;10.57;7.67;;;20.90;98.20;;;;;;5036888;28;20548;-69
2021/07/08 08:19:15;;;;;;;8.20;7.00;;;20.90;98.50;;;;;;5035918;28;20469;-69
2021/07/08 08:21:46;;;;;;;10.00;7.10;;;21.00;98.80;;;;;;5036462;28;20444;-69
2021/07/08 08:24:13;;;;;;;8.53;7.33;;;21.10;99.00;;;;;;5035263;28;20442;-69
2021/07/08 08:26:40;;;;;;;10.53;7.90;;;21.20;98.80;;;;;;5036368;28;20899;-69
2021/07/08 08:29:09;;;;;;;8.90;7.77;;;21.30;98.70;;;;;;5033837;28;20943;-69
2021/07/08 08:31:40;;;;;;;11.43;9.03;;;21.30;98.40;;;;;;5034951;28;20438;-71
2021/07/08 08:34:07;;;;;;;9.87;8.87;;;21.40;98.10;;;;;;5040013;28;20441;-69
2021/07/08 08:36:35;;;;;;;11.00;9.87;;;21.40;97.90;;;;;;5037256;28;20460;-69
2021/07/08 08:39:02;;;;;;;10.90;9.40;;;21.40;97.60;;;;;;5032679;28;20445;-69
2021/07/08 08:41:29;;;;;;;12.07;8.63;;;21.40;98.10;;;;;;5033366;28;20516;-70
2021/07/08 08:43:56;;;;;;;9.40;8.40;;;21.70;98.40;;;;;;5034558;28;20924;-69
2021/07/08 08:46:30;;;;;;;12.63;8.63;;;21.80;98.00;;;;;;5034176;28;20481;-70
2021/07/08 08:49:00;;;;;;;10.40;8.43;;;22.00;97.50;;;;;;5032979;28;20932;-70
2021/07/08 08:51:30;;;;;;;11.57;10.13;;;22.10;97.50;;;;;;5037722;28;20504;-70
2021/07/08 08:54:00;;;;;;;10.90;9.40;;;22.20;97.20;;;;;;5034055;28;20500;-68
2021/07/08 08:56:28;;;;;;;10.17;9.10;;;22.40;97.10;;;;;;5034243;28;20857;-70
2021/07/08 08:58:59;;;;;;;10.50;8.50;;;22.50;96.10;;;;;;5035605;28;20448;-69
2021/07/08 09:01:26;;;;;;;11.10;8.40;;;22.60;95.50;;;;;;5035982;28;20815;-69
2021/07/08 09:04:00;;;;;;;9.17;8.10;;;22.70;94.20;;;;;;5039784;28;20441;-69
2021/07/08 09:06:36;;;;;;;9.90;8.87;;;22.60;94.00;;;;;;5037242;28;21013;-69
2021/07/08 09:09:09;;;;;;;10.30;8.03;;;22.70;93.80;;;;;;5032245;28;20958;-69
2021/07/08 09:11:38;;;;;;;9.47;8.40;;;22.60;93.70;;;;;;5032643;28;20438;-69
2021/07/08 09:14:07;;;;;;;21.37;17.33;;;22.60;93.30;;;;;;5035226;28;20481;-69
2021/07/08 09:16:40;;;;;;;11.40;10.20;;;22.50;93.20;;;;;;5032787;28;20489;-69
2021/07/08 09:19:17;;;;;;;12.10;10.20;;;22.40;92.70;;;;;;5032077;28;20927;-68
2021/07/08 09:21:51;;;;;;;21.50;19.30;;;22.30;93.10;;;;;;5033135;28;20521;-69
2021/07/08 09:24:21;;;;;;;10.90;8.90;;;22.20;93.00;;;;;;5031301;28;20462;-69
2021/07/08 09:26:56;;;;;;;8.77;7.63;;;22.20;92.90;;;;;;5037809;28;20480;-69
2021/07/08 09:29:25;;;;;;;8.60;7.60;;;22.10;93.20;;;;;;5041697;28;20444;-69
2021/07/08 09:31:56;;;;;;;8.77;7.87;;;22.10;93.80;;;;;;5044112;28;20441;-69
2021/07/08 09:34:30;;;;;;;9.80;7.67;;;22.10;93.90;;;;;;5042904;28;20499;-69
2021/07/08 09:37:07;;;;;;;9.90;7.93;;;22.10;94.20;;;;;;5040250;28;20449;-69
2021/07/08 09:39:38;;;;;;;8.43;7.40;;;22.10;94.70;;;;;;5041469;28;20440;-69
2021/07/08 09:42:07;;;;;;;9.77;7.40;;;22.10;94.70;;;;;;5041772;28;20962;-69
2021/07/08 09:44:35;;;;;;;10.00;8.30;;;22.10;94.50;;;;;;5040940;28;20845;-69
2021/07/08 09:47:21;;;;;;;11.73;7.97;;;22.10;94.40;;;;;;5047282;28;20489;-69
2021/07/08 09:49:50;;;;;;;9.73;7.90;;;22.10;94.50;;;;;;5043819;28;20811;-69
2021/07/08 09:52:24;;;;;;;9.33;8.37;;;22.00;94.70;;;;;;5038914;28;20438;-69
2021/07/08 09:57:41;;;;;;;13.20;8.87;;;22.10;95.10;;;;;;5043834;28;20437;-69
2021/07/08 10:00:34;;;;;;;10.43;8.87;;;22.20;94.80;;;;;;5040011;28;20458;-69
2021/07/08 10:03:03;;;;;;;9.17;7.80;;;22.30;94.70;;;;;;5040597;28;20448;-69
2021/07/08 10:05:37;;;;;;;8.87;7.97;;;22.40;94.20;;;;;;5038471;28;20458;-68
2021/07/08 10:08:11;;;;;;;10.23;9.23;;;22.50;94.10;;;;;;5041579;28;20511;-68
2021/07/08 10:10:41;;;;;;;9.27;8.23;;;22.70;94.40;;;;;;5039958;28;21005;-68
2021/07/08 10:13:14;;;;;;;9.20;8.30;;;22.80;93.80;;;;;;5040549;28;20433;-68
2021/07/08 10:15:43;;;;;;;11.43;10.13;;;22.90;93.60;;;;;;5038822;28;20480;-68
2021/07/08 10:18:15;;;;;;;9.60;8.63;;;23.00;93.30;;;;;;5038724;28;20535;-68
2021/07/08 10:20:49;;;;;;;9.10;8.10;;;23.10;90.80;;;;;;5039012;28;20453;-68
2021/07/08 10:23:18;;;;;;;11.07;9.20;;;23.10;90.50;;;;;;5042118;28;20479;-68
2021/07/08 10:25:50;;;;;;;9.90;8.03;;;23.30;91.50;;;;;;5039674;28;20450;-69
2021/07/08 10:28:18;;;;;;;8.70;7.70;;;23.60;90.80;;;;;;5040729;28;20489;-68
2021/07/08 10:30:51;;;;;;;8.60;7.80;;;23.70;88.90;;;;;;5042902;28;20449;-68
2021/07/08 10:33:23;;;;;;;10.50;9.40;;;23.60;87.60;;;;;;5041209;28;20440;-68
2021/07/08 10:36:00;;;;;;;9.33;8.43;;;23.40;88.90;;;;;;5039200;28;20434;-69
2021/07/08 10:38:32;;;;;;;10.50;8.57;;;23.20;89.50;;;;;;5039214;28;20464;-69
2021/07/08 10:41:00;;;;;;;9.50;8.60;;;23.10;90.20;;;;;;5036836;28;20532;-68
2021/07/08 10:43:35;;;;;;;9.40;8.33;;;23.10;90.80;;;;;;5033588;28;20445;-69
2021/07/08 10:46:04;;;;;;;8.23;7.30;;;23.10;90.80;;;;;;5038828;28;20511;-69
2021/07/08 10:49:21;;;;;;;9.53;8.37;;;23.10;90.50;;;;;;5033891;28;20994;-69
2021/07/08 10:51:49;;;;;;;7.07;6.37;;;23.10;91.00;;;;;;5033678;28;20477;-69
2021/07/08 10:54:26;;;;;;;8.10;6.90;;;23.10;91.40;;;;;;5038021;28;20433;-69
2021/07/08 10:56:54;;;;;;;8.90;8.00;;;23.10;91.80;;;;;;5048050;28;20432;-70
2021/07/08 10:59:21;;;;;;;9.03;8.10;;;23.10;91.90;;;;;;5048376;28;20484;-69
2021/07/08 11:01:50;;;;;;;10.30;7.30;;;23.10;92.20;;;;;;5052153;28;20477;-69
2021/07/08 11:04:33;;;;;;;9.10;8.20;;;23.10;91.50;;;;;;5052866;28;20438;-69
2021/07/08 11:07:15;;;;;;;10.23;7.70;;;23.10;91.80;;;;;;5034194;28;21097;-69
2021/07/08 11:09:58;;;;;;;8.23;7.37;;;23.00;91.90;;;;;;5048292;28;20445;-69
2021/07/08 11:12:30;;;;;;;9.67;7.90;;;22.90;91.80;;;;;;5048937;28;20462;-69
2021/07/08 11:14:57;;;;;;;9.13;7.53;;;22.90;92.00;;;;;;5035853;28;20449;-70
2021/07/08 11:17:24;;;;;;;8.80;7.60;;;22.90;92.40;;;;;;5045053;28;20556;-70
2021/07/08 11:19:54;;;;;;;9.40;8.33;;;23.00;92.90;;;;;;5052682;28;20445;-69
2021/07/08 11:22:37;;;;;;;9.23;8.43;;;23.10;93.00;;;;;;5034733;28;20532;-69
2021/07/08 11:25:10;;;;;;;10.17;9.10;;;23.10;92.80;;;;;;5034732;28;20433;-69
2021/07/08 11:27:49;;;;;;;14.03;7.80;;;23.00;92.90;;;;;;5048443;28;20542;-69
2021/07/08 11:30:32;;;;;;;10.33;9.23;;;22.90;92.80;;;;;;5034131;28;20469;-69
2021/07/08 11:33:06;;;;;;;10.47;9.40;;;22.80;92.60;;;;;;5030848;28;20512;-69
2021/07/08 11:35:36;;;;;;;14.40;9.10;;;22.60;92.40;;;;;;5033655;28;20441;-69
2021/07/08 11:38:11;;;;;;;9.67;8.77;;;22.50;92.80;;;;;;5035577;28;20446;-68
2021/07/08 11:40:42;;;;;;;10.20;9.20;;;22.30;92.90;;;;;;5040000;28;20452;-69
2021/07/08 11:43:18;;;;;;;13.17;9.13;;;22.20;93.20;;;;;;5034031;28;20855;-68
2021/07/08 11:45:45;;;;;;;8.97;8.10;;;22.10;93.60;;;;;;5034382;28;20440;-69
2021/07/08 11:48:27;;;;;;;10.97;9.83;;;22.00;93.90;;;;;;5038176;28;20480;-69
2021/07/08 11:50:54;;;;;;;13.07;9.47;;;21.80;94.70;;;;;;5048126;28;20441;-71
2021/07/08 11:53:23;;;;;;;16.63;10.90;;;21.70;95.70;;;;;;5051944;28;20979;-69
2021/07/08 11:55:52;;;;;;;13.57;10.90;;;21.60;96.00;;;;;;5040057;28;20520;-69
2021/07/08 11:58:23;;;;;;;12.50;11.20;;;21.50;96.50;;;;;;5051756;28;20834;-70
2021/07/08 12:00:52;;;;;;;14.10;10.70;;;21.40;96.50;;;;;;5051913;28;20838;-70
2021/07/08 12:03:24;;;;;;;15.77;10.80;;;21.40;96.90;;;;;;5051851;28;20460;-69
2021/07/08 12:05:52;;;;;;;11.77;10.00;;;21.30;96.90;;;;;;5051960;28;20471;-69
2021/07/08 12:08:23;;;;;;;10.80;9.43;;;21.30;97.30;;;;;;5051679;28;20516;-70
2021/07/08 12:10:56;;;;;;;13.10;9.23;;;21.10;97.40;;;;;;5048162;28;20494;-69
2021/07/08 12:13:23;;;;;;;9.20;8.30;;;21.10;97.50;;;;;;5048433;28;20437;-69
2021/07/08 12:15:50;;;;;;;10.57;9.13;;;21.00;97.80;;;;;;5050357;28;20552;-70
2021/07/08 12:18:17;;;;;;;11.13;9.90;;;20.90;98.00;;;;;;5051583;28;20528;-69
2021/07/08 12:20:50;;;;;;;11.57;10.37;;;20.90;98.50;;;;;;5051123;28;20544;-69
2021/07/08 12:23:17;;;;;;;11.53;9.10;;;20.80;98.80;;;;;;5051351;28;20949;-69
2021/07/08 12:25:46;;;;;;;11.90;9.50;;;20.80;99.30;;;;;;5050607;28;20527;-70
2021/07/08 12:28:22;;;;;;;11.43;10.23;;;20.90;99.50;;;;;;5033469;28;20608;-69
2021/07/08 12:30:48;;;;;;;12.43;11.13;;;21.00;99.60;;;;;;5033141;28;20753;-69
2021/07/08 12:33:15;;;;;;;10.77;9.27;;;21.10;99.80;;;;;;5033620;28;20853;-69
2021/07/08 12:35:46;;;;;;;10.50;9.40;;;21.20;99.90;;;;;;5050902;28;20520;-69
2021/07/08 12:38:15;;;;;;;9.40;8.27;;;21.30;99.90;;;;;;5051383;28;20429;-69
2021/07/08 12:40:42;;;;;;;10.10;8.40;;;21.40;99.80;;;;;;5051256;28;20464;-69
2021/07/08 12:43:13;;;;;;;11.30;7.40;;;21.40;99.30;;;;;;5050643;28;20998;-69
2021/07/08 12:45:42;;;;;;;6.90;6.20;;;21.40;98.90;;;;;;5049716;28;20850;-68
2021/07/08 12:48:11;;;;;;;8.30;6.07;;;21.40;99.00;;;;;;5049713;28;20561;-69
2021/07/08 12:50:44;;;;;;;6.03;5.43;;;21.40;98.80;;;;;;5049947;28;20465;-70
2021/07/08 12:53:15;;;;;;;6.30;4.90;;;21.30;98.40;;;;;;5048415;28;20870;-69
2021/07/08 12:55:48;;;;;;;3.77;2.83;;;21.20;98.00;;;;;;5050742;28;20440;-69
2021/07/08 12:58:21;;;;;;;6.17;1.63;;;21.00;97.80;;;;;;5038695;28;20516;-69